Hamill, South Dakota
Current Conditions -  °F | °C
As of 8:21 AM on Thursday 27 Nov 2014 (Local Time) from KICR Reporting Station
Overcast Overcast  
Wind Chill:   Ceiling: 4200
Heat Index: 18°   Visibility: 10mi
Dew Point:   Wind: 17mph
Humidity: 68%   Direction: 130°SE
Pressure: 30.3"   Gusts: NA
Location:  43.59°N, 99.68°W
Report Text: KICR 271421Z AUTO 13015KT 10SM FEW026 OVC042 M08/M13 A3030 RMK AO2 T10781128
Loading
Personal Weather Stations






























Interactive Weather Map New forecast layout! Learn more

10-Day Weather Forecast

Advertisements
Track Severe Weather on mobile